Time;durP1;ratioP1;P1;durP2;ratioP2;P2;SDS_P1;SDS_P2;PMS_P1;PMS_P2;Temp;Humidity;BMP_temperature;BMP_pressure;BME280_temperature;BME280_humidity;BME280_pressure;Samples;Min_cycle;Max_cycle;Signal;HPM_P1;HPM_P2
2022/10/04 05:04:02;;;;;;;9.95;4.32;;;16.00;75.10;;;;;;4787645;30;20074;-73
2022/10/04 05:06:29;;;;;;;9.23;4.72;;;16.10;74.70;;;;;;4789125;30;20130;-75
2022/10/04 05:08:55;;;;;;;11.32;5.28;;;16.10;74.20;;;;;;4793617;29;20051;-71
2022/10/04 05:11:28;;;;;;;11.20;6.75;;;16.10;73.90;;;;;;4787813;30;20055;-75
2022/10/04 05:13:55;;;;;;;11.70;6.43;;;16.20;73.60;;;;;;4791983;29;20051;-74
2022/10/04 05:16:40;;;;;;;10.45;6.78;;;16.20;73.20;;;;;;4807606;29;20112;-74
2022/10/04 05:19:12;;;;;;;12.48;7.28;;;16.10;72.70;;;;;;4777750;30;20120;-73
2022/10/04 05:21:43;;;;;;;16.13;7.80;;;16.00;72.80;;;;;;4772070;30;20106;-74
2022/10/04 05:24:19;;;;;;;13.82;8.35;;;16.00;72.50;;;;;;4771959;30;20056;-75
2022/10/04 05:26:50;;;;;;;19.75;7.88;;;15.90;72.50;;;;;;4771556;30;20462;-72
2022/10/04 05:29:19;;;;;;;15.20;7.43;;;15.90;72.80;;;;;;4773582;30;20051;-73
2022/10/04 05:32:02;;;;;;;14.80;7.28;;;15.80;73.30;;;;;;4788124;30;20047;-75
2022/10/04 05:34:44;;;;;;;10.38;6.80;;;15.80;74.00;;;;;;4793033;30;20103;-75
2022/10/04 05:37:50;;;;;;;11.90;6.20;;;15.80;74.10;;;;;;4792405;30;20051;-74
2022/10/04 05:40:34;;;;;;;15.93;6.88;;;15.80;74.80;;;;;;4792817;30;20445;-74
2022/10/04 05:43:00;;;;;;;13.50;6.57;;;15.80;75.00;;;;;;4789838;30;20094;-74
2022/10/04 05:45:28;;;;;;;11.93;5.50;;;15.80;75.00;;;;;;4789382;30;20075;-76
2022/10/04 05:47:56;;;;;;;14.32;6.88;;;15.80;75.10;;;;;;4792447;30;20055;-77
2022/10/04 05:50:40;;;;;;;13.60;7.05;;;15.90;75.50;;;;;;4792384;30;20055;-77
2022/10/04 05:53:40;;;;;;;13.48;7.38;;;16.00;74.60;;;;;;4792403;30;20065;-76
2022/10/04 05:56:30;;;;;;;13.38;7.70;;;15.90;73.90;;;;;;4758750;30;20059;-73
2022/10/04 05:59:24;;;;;;;13.82;7.82;;;15.90;73.30;;;;;;4792107;30;20047;-73
2022/10/04 06:02:09;;;;;;;16.17;7.95;;;15.90;73.00;;;;;;4792158;30;20122;-73
2022/10/04 06:05:01;;;;;;;14.45;7.88;;;15.80;72.90;;;;;;4792361;30;20116;-74
2022/10/04 06:07:41;;;;;;;26.02;7.75;;;15.70;73.00;;;;;;4775564;30;20070;-73
2022/10/04 06:10:25;;;;;;;27.75;8.80;;;15.70;73.60;;;;;;4775129;30;20344;-73
2022/10/04 06:13:05;;;;;;;20.50;7.00;;;15.80;73.80;;;;;;4791896;30;20051;-73
2022/10/04 06:15:49;;;;;;;20.73;7.90;;;15.80;73.80;;;;;;4791828;30;20055;-74
2022/10/04 06:18:28;;;;;;;12.35;6.38;;;15.90;73.80;;;;;;4791614;30;20047;-73
2022/10/04 06:21:16;;;;;;;12.68;5.88;;;15.90;73.80;;;;;;4781966;30;20483;-74
2022/10/04 06:24:00;;;;;;;16.30;6.35;;;15.90;73.80;;;;;;4791749;30;20538;-74
2022/10/04 06:26:52;;;;;;;14.98;6.85;;;16.00;73.80;;;;;;4791022;30;20126;-75
2022/10/04 06:29:27;;;;;;;14.65;7.07;;;16.00;73.60;;;;;;4776078;30;20439;-77
2022/10/04 06:32:01;;;;;;;18.13;7.53;;;16.00;73.40;;;;;;4791698;30;20054;-76
2022/10/04 06:34:55;;;;;;;12.13;7.03;;;16.00;73.10;;;;;;4791488;30;20039;-73
2022/10/04 06:38:01;;;;;;;9.25;6.25;;;16.00;73.00;;;;;;4792195;30;20126;-73
2022/10/04 06:40:36;;;;;;;12.57;5.72;;;16.10;73.00;;;;;;4785753;29;20443;-74
2022/10/04 06:43:11;;;;;;;15.02;7.20;;;16.10;73.10;;;;;;4791173;30;20070;-77
2022/10/04 06:45:50;;;;;;;12.65;7.03;;;16.10;73.00;;;;;;4794540;29;20377;-75
2022/10/04 06:48:28;;;;;;;12.00;6.93;;;16.10;72.80;;;;;;4793593;29;20050;-74
2022/10/04 06:50:53;;;;;;;12.05;6.95;;;16.10;72.80;;;;;;4780291;30;20047;-74
2022/10/04 06:53:50;;;;;;;10.02;5.95;;;16.10;72.80;;;;;;4791656;30;20462;-75
2022/10/04 06:56:40;;;;;;;9.07;5.75;;;16.10;72.90;;;;;;4791321;30;20090;-74
2022/10/04 06:59:26;;;;;;;12.75;5.82;;;16.20;73.00;;;;;;4791504;30;20051;-75
2022/10/04 07:02:01;;;;;;;11.27;4.80;;;16.20;73.00;;;;;;4791002;30;20063;-74
2022/10/04 07:04:49;;;;;;;9.73;5.00;;;16.20;73.00;;;;;;4790842;30;20055;-75
2022/10/04 07:07:33;;;;;;;11.98;5.05;;;16.20;73.00;;;;;;4790594;30;20054;-74
2022/10/04 07:10:16;;;;;;;10.07;4.60;;;16.20;73.00;;;;;;4790835;30;20059;-77
2022/10/04 07:13:03;;;;;;;11.20;6.72;;;16.20;73.00;;;;;;4790741;30;20116;-72
2022/10/04 07:15:49;;;;;;;12.70;6.78;;;16.20;72.90;;;;;;4773519;30;20368;-72
2022/10/04 07:18:29;;;;;;;11.68;7.68;;;16.20;72.70;;;;;;4794575;29;20106;-72
2022/10/04 07:21:06;;;;;;;12.32;7.88;;;16.20;72.50;;;;;;4809860;29;20101;-73
2022/10/04 07:23:56;;;;;;;12.38;8.63;;;16.20;72.30;;;;;;4809308;29;20405;-71
2022/10/04 07:26:45;;;;;;;13.23;8.10;;;16.20;72.20;;;;;;4807974;29;20055;-74
2022/10/04 07:29:27;;;;;;;12.00;7.60;;;16.20;72.00;;;;;;4808722;29;20054;-74
2022/10/04 07:32:05;;;;;;;14.18;7.35;;;16.30;72.00;;;;;;4808875;29;20055;-74
2022/10/04 07:34:48;;;;;;;11.18;8.00;;;16.20;71.80;;;;;;4808382;29;20123;-73
2022/10/04 07:37:15;;;;;;;12.70;8.32;;;16.20;71.70;;;;;;4807115;29;20070;-73
2022/10/04 07:39:52;;;;;;;11.38;7.80;;;16.20;71.70;;;;;;4808186;29;20472;-73
2022/10/04 07:42:41;;;;;;;13.40;7.60;;;16.20;72.20;;;;;;4808711;29;20467;-74
2022/10/04 07:45:26;;;;;;;11.57;7.53;;;16.20;71.60;;;;;;4808108;29;20051;-74
2022/10/04 07:48:25;;;;;;;11.93;7.30;;;16.20;71.60;;;;;;4793711;29;20093;-73
2022/10/04 07:50:53;;;;;;;12.02;7.53;;;16.20;71.70;;;;;;4790163;30;20126;-73
2022/10/04 07:53:31;;;;;;;10.60;7.88;;;16.20;71.70;;;;;;4798545;29;20058;-71
2022/10/04 07:56:37;;;;;;;9.52;6.95;;;16.20;71.70;;;;;;4808356;29;20479;-76
2022/10/04 07:59:41;;;;;;;10.95;7.75;;;16.20;71.80;;;;;;4757225;30;20068;-74
2022/10/04 08:02:12;;;;;;;12.50;7.18;;;16.20;71.90;;;;;;4780016;30;20059;-73
2022/10/04 08:04:50;;;;;;;10.50;7.68;;;16.20;72.10;;;;;;4790519;30;20112;-73
2022/10/04 08:07:22;;;;;;;14.18;7.85;;;16.20;72.80;;;;;;4790641;30;20055;-73
2022/10/04 08:10:07;;;;;;;13.13;6.72;;;16.20;72.20;;;;;;4790821;30;20051;-73
2022/10/04 08:12:51;;;;;;;12.25;5.97;;;16.20;72.30;;;;;;4790053;30;20193;-74
2022/10/04 08:15:33;;;;;;;10.18;6.13;;;16.20;72.30;;;;;;4790058;30;20062;-73
2022/10/04 08:18:20;;;;;;;10.63;5.80;;;16.20;72.50;;;;;;4789689;30;20134;-75
2022/10/04 08:21:02;;;;;;;9.50;5.57;;;16.20;72.60;;;;;;4789876;30;20100;-75
2022/10/04 08:24:07;;;;;;;11.18;5.07;;;16.30;72.70;;;;;;4790558;30;20063;-74
2022/10/04 08:26:35;;;;;;;11.00;5.60;;;16.30;72.70;;;;;;4775326;30;20055;-75
2022/10/04 08:29:41;;;;;;;9.43;5.63;;;16.30;72.80;;;;;;4789744;30;20062;-74
2022/10/04 08:32:28;;;;;;;6.65;4.60;;;16.30;72.90;;;;;;4790025;30;20078;-75
2022/10/04 08:35:00;;;;;;;8.88;5.00;;;16.30;72.90;;;;;;4789911;30;20128;-75
2022/10/04 08:37:44;;;;;;;9.43;4.82;;;16.30;73.00;;;;;;4774491;30;20059;-74
2022/10/04 08:40:43;;;;;;;;;;;16.30;73.10;;;;;;4790715;30;20481;-74
2022/10/04 08:43:28;;;;;;;9.30;4.68;;;16.30;73.30;;;;;;4760186;30;20299;-74
2022/10/04 08:46:10;;;;;;;9.63;4.78;;;16.40;73.30;;;;;;4789547;30;20062;-74
2022/10/04 08:48:54;;;;;;;8.55;4.32;;;16.40;73.30;;;;;;4789590;30;20075;-75
2022/10/04 08:51:39;;;;;;;9.63;4.20;;;16.40;73.30;;;;;;4789626;30;20059;-74
2022/10/04 08:54:18;;;;;;;10.45;3.97;;;16.40;73.40;;;;;;4789544;30;20383;-74
2022/10/04 08:57:00;;;;;;;10.10;4.03;;;16.40;73.30;;;;;;4788121;30;20054;-77
2022/10/04 09:00:04;;;;;;;6.18;3.78;;;16.50;73.30;;;;;;4789677;30;20130;-78
2022/10/04 09:02:48;;;;;;;;;;;16.50;73.20;;;;;;4789520;29;20193;-75
2022/10/04 09:05:40;;;;;;;13.07;7.65;;;16.50;73.20;;;;;;4793387;30;20079;-75
2022/10/04 09:08:17;;;;;;;9.48;5.50;;;16.50;73.30;;;;;;4793370;30;20055;-75
2022/10/04 09:11:07;;;;;;;11.30;5.50;;;16.60;74.00;;;;;;4793328;30;20058;-76
2022/10/04 09:13:36;;;;;;;12.35;5.13;;;16.50;73.90;;;;;;4793065;30;20051;-76
2022/10/04 09:16:16;;;;;;;13.20;5.35;;;16.60;73.90;;;;;;4792350;30;20071;-75
2022/10/04 09:18:49;;;;;;;9.63;5.28;;;16.60;73.90;;;;;;4791526;30;20109;-75
2022/10/04 09:21:47;;;;;;;16.13;5.63;;;16.60;73.90;;;;;;4793077;30;20055;-76
2022/10/04 09:24:50;;;;;;;12.27;5.95;;;16.60;73.90;;;;;;4793169;30;20413;-77
2022/10/04 09:27:39;;;;;;;11.95;7.25;;;16.60;73.90;;;;;;4792421;30;20419;-76
2022/10/04 09:30:19;;;;;;;12.60;6.50;;;16.70;74.10;;;;;;4792684;30;20047;-78
2022/10/04 09:33:11;;;;;;;14.40;7.10;;;16.70;74.10;;;;;;4777336;30;20066;-78
2022/10/04 09:35:52;;;;;;;16.92;7.03;;;16.70;74.20;;;;;;4792858;30;20061;-76
2022/10/04 09:38:48;;;;;;;15.07;8.13;;;16.70;74.30;;;;;;4792993;30;20051;-77
2022/10/04 09:41:35;;;;;;;14.50;8.80;;;16.70;74.10;;;;;;4792766;30;20054;-82
2022/10/04 09:44:18;;;;;;;13.50;7.20;;;16.70;74.10;;;;;;4792924;30;20379;-77
2022/10/04 09:47:12;;;;;;;13.82;7.57;;;16.70;74.30;;;;;;4792665;30;20483;-79
2022/10/04 09:50:04;;;;;;;13.43;5.32;;;16.70;74.40;;;;;;4791874;30;20055;-79
2022/10/04 09:52:52;;;;;;;15.82;7.25;;;16.80;74.50;;;;;;4792509;30;20128;-79
2022/10/04 09:55:45;;;;;;;17.73;6.55;;;16.80;74.60;;;;;;4792500;30;20359;-79
2022/10/04 09:58:33;;;;;;;19.45;7.47;;;16.80;74.70;;;;;;4792455;30;20055;-77
2022/10/04 10:01:28;;;;;;;17.48;9.18;;;16.80;74.70;;;;;;4792156;30;20122;-78
2022/10/04 10:04:22;;;;;;;18.00;10.68;;;16.90;74.50;;;;;;4774260;30;20070;-78
2022/10/04 10:07:17;;;;;;;19.33;9.60;;;16.80;74.30;;;;;;4774634;30;20048;-78
2022/10/04 10:16:40;;;;;;;11.55;6.90;;;16.80;74.30;;;;;;4757190;30;20067;-77
2022/10/04 10:19:48;;;;;;;16.27;7.50;;;16.90;74.40;;;;;;4773281;30;20067;-80
2022/10/04 10:22:33;;;;;;;12.25;6.53;;;16.80;74.30;;;;;;4784906;30;20116;-80
2022/10/04 10:25:18;;;;;;;10.13;6.50;;;16.90;74.40;;;;;;4792065;30;20112;-78
2022/10/04 10:28:09;;;;;;;10.27;6.53;;;16.90;74.30;;;;;;4791906;30;20098;-78
2022/10/04 10:31:12;;;;;;;9.73;6.20;;;16.90;74.30;;;;;;4791999;30;20448;-78
2022/10/04 10:34:12;;;;;;;7.82;4.72;;;16.90;74.30;;;;;;4776417;30;20058;-78
2022/10/04 10:36:47;;;;;;;9.88;5.53;;;16.90;74.30;;;;;;4791765;30;20418;-77
2022/10/04 10:39:49;;;;;;;8.90;4.97;;;16.90;74.20;;;;;;4792279;30;20051;-79
2022/10/04 10:42:20;;;;;;;8.73;4.88;;;16.90;74.20;;;;;;4791529;30;20070;-80
2022/10/04 10:45:14;;;;;;;8.73;4.85;;;16.90;74.20;;;;;;4791799;30;20135;-78
2022/10/04 10:48:00;;;;;;;8.70;5.13;;;16.90;74.10;;;;;;4791918;30;20357;-80
2022/10/04 10:51:03;;;;;;;7.03;4.25;;;16.90;74.10;;;;;;4791580;30;20145;-79
2022/10/04 10:53:42;;;;;;;6.30;4.53;;;16.90;74.10;;;;;;4791923;30;20131;-77
2022/10/04 10:56:25;;;;;;;6.53;4.22;;;16.90;74.10;;;;;;4791685;30;20058;-78
2022/10/04 10:59:11;;;;;;;12.43;4.25;;;17.00;74.20;;;;;;4790925;30;20134;-79
2022/10/04 11:02:03;;;;;;;7.30;4.15;;;17.00;74.00;;;;;;4790700;30;20130;-77
2022/10/04 11:04:53;;;;;;;8.23;5.57;;;17.00;73.80;;;;;;4790472;30;20163;-76
2022/10/04 11:07:49;;;;;;;17.42;7.10;;;17.00;73.80;;;;;;4791122;30;20059;-77
2022/10/04 11:10:40;;;;;;;12.98;9.13;;;17.00;73.50;;;;;;4791362;30;20051;-77
2022/10/04 11:13:44;;;;;;;12.50;9.52;;;17.00;73.20;;;;;;4791416;30;20129;-78
2022/10/04 11:16:55;;;;;;;15.03;10.33;;;16.90;73.20;;;;;;4790923;30;20062;-73
2022/10/04 11:19:21;;;;;;;13.43;9.60;;;16.90;73.30;;;;;;4782339;30;20059;-77
2022/10/04 11:22:26;;;;;;;15.52;9.50;;;16.90;73.40;;;;;;4790356;30;20057;-77
2022/10/04 11:25:06;;;;;;;10.68;8.10;;;16.90;73.40;;;;;;4783901;30;20111;-76
2022/10/04 11:28:02;;;;;;;10.77;8.38;;;16.90;73.60;;;;;;4790909;29;20055;-76
2022/10/04 11:30:51;;;;;;;10.85;7.80;;;16.90;73.60;;;;;;4790933;30;20070;-76
2022/10/04 11:33:22;;;;;;;10.38;7.72;;;16.90;73.60;;;;;;4787187;30;20058;-75
2022/10/04 11:36:25;;;;;;;11.90;8.77;;;16.90;73.60;;;;;;4791123;30;20047;-76
2022/10/04 11:39:04;;;;;;;11.70;7.13;;;17.00;73.50;;;;;;4790744;30;20052;-76
2022/10/04 11:41:47;;;;;;;10.05;6.53;;;17.00;73.70;;;;;;4791504;30;20051;-75
2022/10/04 11:44:58;;;;;;;7.55;6.10;;;17.00;73.70;;;;;;4790686;30;20051;-77
2022/10/04 11:47:45;;;;;;;10.98;8.45;;;17.00;73.70;;;;;;4790844;30;20349;-79
2022/10/04 11:50:29;;;;;;;12.93;8.68;;;17.00;73.30;;;;;;4790849;30;20459;-76
2022/10/04 11:53:07;;;;;;;;;;;17.00;73.30;;;;;;4775345;30;20436;-76
2022/10/04 11:55:56;;;;;;;11.65;8.77;;;17.00;73.40;;;;;;4789696;30;19925;-76
2022/10/04 11:58:36;;;;;;;12.75;8.70;;;16.90;73.50;;;;;;4786827;30;20098;-75
2022/10/04 12:01:18;;;;;;;13.32;8.60;;;16.90;73.60;;;;;;4773188;30;20062;-76
2022/10/04 12:04:02;;;;;;;12.23;8.13;;;16.90;73.70;;;;;;4771902;30;20388;-76
2022/10/04 12:07:01;;;;;;;12.82;7.93;;;16.90;73.70;;;;;;4772023;30;20138;-77
2022/10/04 12:09:51;;;;;;;9.57;6.75;;;16.90;73.70;;;;;;4778358;30;20093;-77
2022/10/04 12:12:46;;;;;;;9.98;6.93;;;17.00;73.80;;;;;;4772648;30;20090;-76
2022/10/04 12:15:12;;;;;;;;;;;17.00;73.80;;;;;;4771673;30;20087;-76
2022/10/04 12:17:42;;;;;;;10.07;6.47;;;17.00;73.70;;;;;;4772538;30;20261;-76
2022/10/04 12:20:42;;;;;;;8.63;7.05;;;17.00;73.80;;;;;;4772463;30;20051;-77
2022/10/04 12:23:56;;;;;;;7.32;5.22;;;17.00;73.70;;;;;;4771893;30;20060;-76
2022/10/04 12:26:42;;;;;;;7.67;5.70;;;17.00;73.70;;;;;;4775851;30;20063;-76
2022/10/04 12:29:39;;;;;;;6.68;5.10;;;17.00;73.70;;;;;;4789745;30;20092;-76
2022/10/04 12:32:26;;;;;;;6.68;5.13;;;17.10;73.70;;;;;;4790263;30;20092;-77
2022/10/04 12:35:13;;;;;;;7.30;5.25;;;17.00;73.60;;;;;;4789905;30;20062;-76
2022/10/04 12:37:56;;;;;;;8.98;5.10;;;17.10;73.60;;;;;;4789371;29;20398;-76
2022/10/04 12:40:41;;;;;;;14.23;6.00;;;17.10;73.60;;;;;;4789276;30;20475;-78
2022/10/04 12:43:29;;;;;;;10.32;6.35;;;17.10;73.60;;;;;;4789428;30;20047;-78
2022/10/04 12:46:00;;;;;;;16.02;6.60;;;17.10;73.70;;;;;;4789630;30;20066;-76
2022/10/04 12:48:57;;;;;;;14.00;5.70;;;17.10;73.70;;;;;;4789768;30;20093;-76
2022/10/04 12:51:35;;;;;;;9.50;5.50;;;17.10;73.80;;;;;;4789407;30;20061;-77
2022/10/04 12:54:22;;;;;;;10.25;5.20;;;17.10;73.90;;;;;;4789377;30;20155;-85
2022/10/04 12:56:54;;;;;;;15.35;5.25;;;17.10;74.10;;;;;;4789626;30;20039;-83
2022/10/04 12:59:38;;;;;;;14.80;6.10;;;17.10;74.10;;;;;;4749096;29;20142;-84
2022/10/04 13:02:40;;;;;;;10.73;5.75;;;17.20;73.90;;;;;;4807453;29;20111;-82
2022/10/04 13:05:18;;;;;;;13.10;6.10;;;17.20;73.80;;;;;;4793404;29;20451;-79
2022/10/04 13:08:09;;;;;;;13.07;6.57;;;17.20;73.70;;;;;;4773773;30;20061;-74
2022/10/04 13:10:53;;;;;;;9.63;6.00;;;17.20;73.90;;;;;;4774091;30;20070;-81
2022/10/04 13:13:24;;;;;;;;;;;17.20;74.10;;;;;;4789705;30;20051;-74
2022/10/04 13:16:21;;;;;;;11.35;5.38;;;17.20;74.10;;;;;;4789941;30;20346;-77
2022/10/04 13:19:20;;;;;;;17.45;6.10;;;17.20;74.20;;;;;;4789656;30;20066;-74
2022/10/04 13:22:12;;;;;;;20.60;5.93;;;17.20;74.20;;;;;;4790030;30;20138;-76
2022/10/04 13:24:56;;;;;;;11.23;6.15;;;17.20;74.10;;;;;;4787466;30;20067;-77
2022/10/04 13:27:56;;;;;;;10.23;5.70;;;17.20;73.10;;;;;;4789958;30;20055;-76
2022/10/04 13:30:26;;;;;;;10.35;6.30;;;17.20;71.80;;;;;;4773367;30;20473;-75
2022/10/04 13:33:02;;;;;;;10.00;6.43;;;17.20;71.60;;;;;;4789596;30;20055;-73
2022/10/04 13:35:46;;;;;;;9.95;6.35;;;17.20;71.50;;;;;;4789397;30;20051;-73
2022/10/04 13:38:30;;;;;;;19.48;7.22;;;17.20;71.60;;;;;;4789157;30;20066;-77
2022/10/04 13:41:14;;;;;;;12.90;6.50;;;17.10;71.80;;;;;;4789623;30;20069;-77
2022/10/04 13:43:52;;;;;;;13.45;5.93;;;17.10;71.80;;;;;;4789652;30;20142;-77
2022/10/04 13:46:41;;;;;;;8.40;5.05;;;17.20;71.90;;;;;;4789324;30;20452;-78
2022/10/04 13:49:29;;;;;;;12.55;4.93;;;17.20;72.00;;;;;;4790569;29;20048;-77
2022/10/04 13:58:24;;;;;;;7.22;4.38;;;17.20;72.30;;;;;;4792162;30;20055;-77
2022/10/04 14:01:12;;;;;;;9.48;4.38;;;17.20;72.50;;;;;;4792204;30;20059;-76
2022/10/04 14:03:43;;;;;;;8.65;3.92;;;17.20;72.60;;;;;;4788675;30;20063;-77
2022/10/04 14:06:38;;;;;;;7.07;3.67;;;17.20;72.70;;;;;;4791883;30;20047;-77
2022/10/04 14:09:43;;;;;;;8.80;3.92;;;17.20;72.80;;;;;;4791624;30;20062;-76
2022/10/04 14:12:24;;;;;;;6.47;3.67;;;17.20;72.70;;;;;;4792464;30;20522;-76
2022/10/04 14:15:29;;;;;;;5.72;2.80;;;17.20;72.90;;;;;;4788852;30;20059;-77
2022/10/04 14:18:03;;;;;;;;;;;17.30;73.00;;;;;;4773098;30;20120;-75
2022/10/04 14:20:47;;;;;;;6.57;3.33;;;17.20;73.00;;;;;;4792573;30;19933;-76
2022/10/04 14:23:20;;;;;;;5.55;3.50;;;17.30;73.00;;;;;;4792019;30;20053;-75
2022/10/04 14:25:57;;;;;;;4.90;2.80;;;17.30;73.00;;;;;;4792170;30;20069;-75
2022/10/04 14:28:54;;;;;;;6.25;3.17;;;17.30;72.90;;;;;;4791104;30;20055;-78
2022/10/04 14:31:32;;;;;;;6.70;2.72;;;17.30;72.80;;;;;;4790749;30;20051;-75
2022/10/04 14:33:57;;;;;;;6.68;3.20;;;17.30;72.40;;;;;;4791942;30;20180;-75
2022/10/04 14:37:19;;;;;;;6.18;3.20;;;17.30;72.20;;;;;;4791874;30;20142;-74
2022/10/04 14:40:03;;;;;;;6.32;2.80;;;17.30;72.30;;;;;;4765513;30;20123;-74
2022/10/04 14:42:59;;;;;;;6.75;2.95;;;17.30;72.20;;;;;;4791849;30;20117;-74
2022/10/04 14:45:31;;;;;;;11.82;3.92;;;17.30;72.10;;;;;;4792503;30;20051;-75
2022/10/04 14:48:20;;;;;;;12.52;3.55;;;17.30;71.60;;;;;;4791884;30;20142;-74
2022/10/04 14:51:08;;;;;;;9.02;4.25;;;17.30;71.70;;;;;;4791845;30;20151;-76
2022/10/04 14:53:46;;;;;;;19.48;7.65;;;17.30;71.80;;;;;;4791536;30;20051;-76
2022/10/04 14:56:11;;;;;;;15.90;5.75;;;17.30;72.60;;;;;;4791059;30;20459;-75
2022/10/04 14:58:53;;;;;;;12.98;5.40;;;17.30;73.30;;;;;;4791707;30;20054;-75
2022/10/04 15:01:19;;;;;;;10.00;4.45;;;17.40;72.90;;;;;;4791104;29;20066;-77
2022/10/04 15:04:20;;;;;;;8.35;4.82;;;17.40;72.90;;;;;;4790399;30;20055;-74
2022/10/04 15:06:50;;;;;;;12.40;4.43;;;17.30;73.10;;;;;;4791509;30;20055;-77
2022/10/04 15:09:47;;;;;;;10.45;5.13;;;17.40;73.10;;;;;;4791486;30;20062;-75
2022/10/04 15:12:27;;;;;;;10.65;5.40;;;17.30;72.90;;;;;;4791459;30;20070;-75
2022/10/04 15:15:12;;;;;;;12.32;5.35;;;17.40;73.50;;;;;;4790535;30;20047;-75
2022/10/04 15:18:03;;;;;;;11.50;4.43;;;17.40;73.70;;;;;;4790607;30;20051;-76
2022/10/04 15:20:59;;;;;;;15.68;4.70;;;17.40;74.00;;;;;;4791483;30;20134;-72
2022/10/04 15:23:46;;;;;;;10.00;4.72;;;17.30;73.60;;;;;;4788799;30;20074;-76
2022/10/04 15:26:18;;;;;;;9.07;4.00;;;17.40;73.60;;;;;;4775324;30;20084;-74
2022/10/04 15:28:53;;;;;;;7.30;4.53;;;17.40;72.80;;;;;;4790822;30;20221;-73
2022/10/04 15:31:24;;;;;;;11.07;4.13;;;17.40;72.50;;;;;;4775234;30;20413;-78
2022/10/04 15:34:21;;;;;;;8.90;3.90;;;17.40;72.50;;;;;;4790978;30;20059;-75
2022/10/04 15:37:01;;;;;;;10.48;5.40;;;17.40;72.50;;;;;;4790665;30;20055;-73
2022/10/04 15:40:08;;;;;;;11.52;5.25;;;17.40;72.20;;;;;;4790419;30;20047;-73
2022/10/04 15:42:40;;;;;;;9.50;4.95;;;17.40;72.50;;;;;;4753127;30;20495;-73
2022/10/04 15:45:16;;;;;;;7.90;4.28;;;17.40;72.40;;;;;;4784727;30;20059;-73
2022/10/04 15:48:12;;;;;;;14.50;4.38;;;17.40;73.20;;;;;;4791397;30;20055;-79
2022/10/04 15:51:16;;;;;;;11.25;4.18;;;17.40;73.70;;;;;;4790586;30;20059;-74
2022/10/04 15:54:07;;;;;;;9.18;3.70;;;17.40;74.30;;;;;;4774673;30;20062;-73
2022/10/04 15:56:54;;;;;;;5.95;3.13;;;17.40;74.40;;;;;;4790504;30;20081;-74
2022/10/04 15:59:46;;;;;;;8.35;3.83;;;17.40;74.60;;;;;;4790893;30;20094;-73
2022/10/04 16:02:27;;;;;;;7.70;2.70;;;17.40;74.90;;;;;;4790422;30;20059;-73
2022/10/04 16:05:13;;;;;;;11.68;3.85;;;17.40;74.90;;;;;;4774337;30;20145;-73
2022/10/04 16:07:58;;;;;;;9.35;3.33;;;17.40;74.70;;;;;;4790300;30;20115;-74
2022/10/04 16:10:27;;;;;;;8.88;3.05;;;17.40;74.60;;;;;;4791097;30;20070;-74
2022/10/04 16:13:13;;;;;;;6.03;2.85;;;17.40;74.50;;;;;;4789784;30;20066;-74
2022/10/04 16:15:44;;;;;;;9.15;3.75;;;17.40;74.40;;;;;;4790544;30;20062;-73
2022/10/04 16:18:12;;;;;;;6.10;3.38;;;17.50;74.40;;;;;;4790072;30;20127;-74
2022/10/04 16:20:54;;;;;;;9.73;3.35;;;17.50;74.30;;;;;;4790330;30;20051;-73
2022/10/04 16:23:25;;;;;;;8.90;3.58;;;17.40;74.10;;;;;;4790424;30;20057;-73
2022/10/04 16:25:56;;;;;;;6.07;3.60;;;17.50;74.10;;;;;;4790177;30;20043;-73
2022/10/04 16:28:28;;;;;;;10.88;4.50;;;17.50;73.90;;;;;;4789963;30;20054;-73
2022/10/04 16:31:20;;;;;;;10.48;4.40;;;17.50;73.50;;;;;;4789481;30;20062;-74
2022/10/04 16:34:19;;;;;;;9.50;4.28;;;17.50;73.40;;;;;;4772360;30;20078;-73
2022/10/04 16:36:57;;;;;;;11.43;3.72;;;17.50;73.20;;;;;;4789807;30;20062;-72
2022/10/04 16:40:04;;;;;;;8.20;3.90;;;17.50;73.10;;;;;;4789846;30;20062;-72
2022/10/04 16:42:48;;;;;;;9.23;4.22;;;17.50;72.90;;;;;;4787227;30;20133;-72
2022/10/04 16:45:40;;;;;;;11.95;3.95;;;17.50;72.90;;;;;;4787251;30;20074;-73
2022/10/04 16:48:13;;;;;;;7.80;4.03;;;17.50;72.90;;;;;;4789937;29;20058;-72
2022/10/04 16:50:49;;;;;;;;;;;17.50;72.90;;;;;;4790236;29;20059;-74
2022/10/04 16:53:32;;;;;;;9.02;3.80;;;17.50;73.10;;;;;;4789945;29;19933;-73
2022/10/04 16:56:15;;;;;;;9.00;4.43;;;17.50;73.20;;;;;;4789701;29;20059;-73
2022/10/04 16:59:04;;;;;;;8.75;3.35;;;17.50;73.20;;;;;;4790011;30;20070;-73
2022/10/04 17:01:58;;;;;;;8.93;3.65;;;17.50;73.20;;;;;;4786283;30;20058;-72
2022/10/04 17:04:38;;;;;;;13.48;3.63;;;17.50;73.10;;;;;;4789290;30;20064;-72
2022/10/04 17:07:12;;;;;;;8.27;3.60;;;17.50;73.10;;;;;;4789930;30;20070;-73
2022/10/04 17:10:01;;;;;;;7.50;3.60;;;17.50;73.50;;;;;;4790455;30;20054;-72
2022/10/04 17:12:45;;;;;;;10.95;3.95;;;17.50;73.30;;;;;;4789638;30;20066;-71
2022/10/04 18:03:30;;;;;;;7.78;4.68;;;17.50;73.40;;;;;;4790744;29;20443;-67
2022/10/04 18:05:57;;;;;;;;;;;17.50;73.20;;;;;;4794489;29;20112;-67
2022/10/04 18:08:45;;;;;;;12.50;6.55;;;17.50;73.10;;;;;;4810671;29;19964;-67
2022/10/04 18:11:26;;;;;;;10.18;6.20;;;17.50;73.60;;;;;;4799277;29;20069;-67
2022/10/04 18:14:28;;;;;;;10.57;6.13;;;17.50;73.30;;;;;;4792239;30;20056;-68
2022/10/04 18:16:59;;;;;;;7.15;5.28;;;17.40;73.30;;;;;;4755965;30;20344;-68
2022/10/04 18:19:55;;;;;;;7.93;6.13;;;17.40;73.40;;;;;;4792329;30;20459;-68
2022/10/04 18:22:28;;;;;;;8.85;6.22;;;17.40;73.60;;;;;;4792324;30;20474;-68
2022/10/04 18:25:16;;;;;;;9.55;5.93;;;17.30;73.70;;;;;;4792158;29;20055;-68
2022/10/04 18:28:06;;;;;;;10.60;6.25;;;17.30;73.80;;;;;;4792284;29;20058;-68
2022/10/04 18:30:44;;;;;;;8.70;6.70;;;17.40;73.80;;;;;;4791802;30;20063;-69
2022/10/04 18:33:28;;;;;;;8.65;6.53;;;17.30;73.90;;;;;;4791991;30;20138;-68
2022/10/04 18:36:05;;;;;;;10.07;6.20;;;17.30;74.40;;;;;;4782037;30;20054;-68
2022/10/04 18:38:33;;;;;;;11.07;7.07;;;17.30;74.50;;;;;;4774297;30;20146;-69
2022/10/04 18:41:11;;;;;;;10.23;6.82;;;17.30;74.50;;;;;;4774170;30;20139;-69
2022/10/04 18:43:56;;;;;;;10.70;6.28;;;17.30;74.50;;;;;;4774409;30;20059;-69
2022/10/04 18:46:23;;;;;;;9.95;5.95;;;17.30;74.70;;;;;;4774274;30;20135;-70
2022/10/04 18:48:54;;;;;;;10.32;6.97;;;17.20;74.80;;;;;;4773941;30;20047;-69
2022/10/04 18:51:25;;;;;;;11.68;7.57;;;17.30;74.80;;;;;;4774264;30;20345;-69
2022/10/04 18:54:08;;;;;;;8.80;5.63;;;17.20;74.60;;;;;;4774239;30;20062;-69
2022/10/04 18:56:51;;;;;;;13.65;6.90;;;17.20;74.90;;;;;;4773713;30;20059;-69
2022/10/04 19:02:36;;;;;;;8.70;6.30;;;17.20;75.40;;;;;;4822719;29;20070;-71
2022/10/04 19:05:16;;;;;;;9.00;6.45;;;17.20;75.90;;;;;;4811966;29;20050;-70
2022/10/04 19:08:06;;;;;;;8.95;6.00;;;17.20;76.10;;;;;;4827433;29;20107;-71
2022/10/04 19:10:49;;;;;;;9.63;5.85;;;17.20;76.20;;;;;;4814624;29;20062;-71
2022/10/04 19:13:33;;;;;;;7.72;5.85;;;17.30;76.40;;;;;;4809448;29;20058;-69
2022/10/04 19:16:34;;;;;;;6.45;5.03;;;17.30;76.50;;;;;;4809944;29;20055;-68
2022/10/04 19:19:22;;;;;;;7.65;5.43;;;17.30;76.40;;;;;;4808830;29;20063;-70
2022/10/04 19:22:01;;;;;;;9.73;5.38;;;17.30;76.60;;;;;;4815473;29;20050;-68
2022/10/04 19:24:37;;;;;;;10.02;4.72;;;17.30;76.60;;;;;;4827210;29;20066;-68
2022/10/04 19:27:11;;;;;;;9.82;5.50;;;17.20;76.50;;;;;;4827216;29;20054;-68
2022/10/04 19:30:01;;;;;;;12.57;4.82;;;17.20;76.50;;;;;;4827405;29;20069;-68
2022/10/04 19:32:47;;;;;;;7.88;4.47;;;17.20;76.40;;;;;;4827214;29;20058;-71
2022/10/04 19:35:19;;;;;;;6.70;3.90;;;17.20;76.50;;;;;;4810376;29;20089;-69
2022/10/04 19:38:00;;;;;;;5.28;4.03;;;17.20;76.60;;;;;;4827421;29;20054;-69
2022/10/04 19:40:47;;;;;;;8.40;4.63;;;17.10;76.80;;;;;;4812020;29;20078;-68
2022/10/04 19:43:45;;;;;;;6.22;3.80;;;17.10;76.80;;;;;;4809068;29;20066;-68
2022/10/04 19:46:38;;;;;;;7.45;3.40;;;17.10;77.00;;;;;;4808694;29;20051;-68
2022/10/04 19:49:40;;;;;;;5.35;3.08;;;17.20;77.10;;;;;;4808796;29;20090;-70
2022/10/04 19:52:27;;;;;;;6.93;2.88;;;17.20;77.10;;;;;;4791671;29;20055;-70
2022/10/04 19:55:16;;;;;;;4.43;2.90;;;17.20;77.00;;;;;;4821742;29;20061;-71
2022/10/04 19:57:46;;;;;;;7.00;3.10;;;17.20;76.90;;;;;;4822768;29;20389;-71
2022/10/04 20:00:13;;;;;;;5.50;2.92;;;17.20;76.80;;;;;;4793030;29;20066;-73
2022/10/04 20:02:41;;;;;;;4.47;2.60;;;17.20;76.70;;;;;;4808635;29;20059;-70
2022/10/04 20:05:16;;;;;;;8.63;3.72;;;17.20;76.70;;;;;;4809005;29;20511;-69
2022/10/04 20:07:49;;;;;;;8.23;3.38;;;17.20;76.70;;;;;;4808642;29;20059;-69
2022/10/04 20:11:09;;;;;;;7.53;3.60;;;17.20;76.90;;;;;;4807703;29;20122;-72
2022/10/04 20:13:35;;;;;;;6.07;3.78;;;17.20;77.10;;;;;;4787489;30;20142;-71
2022/10/04 20:16:00;;;;;;;7.13;4.18;;;17.20;77.10;;;;;;4823864;29;20145;-70
2022/10/04 20:18:32;;;;;;;8.50;3.80;;;17.20;77.30;;;;;;4826529;29;20361;-71